Sunlight Express — 3FMK7 — position and weather

sailwx.info

Track history (hours):
 
Tides and Currents Weather Stations Pressure Air Temp Water Temp Dewpoint Dewpoint Depression Visibility Wind Speed Wind Dir Waves Ship Positions

Sunlight Express

Last reported at 2017-Nov-20 07:00 UTC. Time now 2017-Nov-21 19:23 UTC.
Position N 37°00' E 000°54'.

Length 182 m; draft 7.8 m.

Type: Ship. MMSI: 351001000.

Wind from 230 at 14 knots

Barometer 1021.0 mb
Air temperature 17.0 ° C
Visibility: greater than 5.4 NM
Dewpoint 13.5 ° C

Date/timePositionNaut miles runAvg speedWind from/ knotsBaromVisibWave heightAir tempDewpointWater temp
2017-Nov-20 07:00N 37°00' E 000°54'   230 / 141021.0 5.4 17.013.5
2017-Nov-17 07:00N 37°48' E 008°48'24913.6 320 / 201014.0 5.4 16.012.4
2017-Nov-16 12:40N 36°25' E 013°43'213.7
2017-Nov-16 12:30N 36°24' E 013°46'713.7
2017-Nov-16 12:00N 36°21' E 013°53'913.9
2017-Nov-16 11:21N 36°17' E 014°03'514.1
2017-Nov-16 11:00N 36°15' E 014°09'714.0
2017-Nov-16 10:30N 36°12' E 014°16'714.0
2017-Nov-16 10:00N 36°08' E 014°24'713.8
2017-Nov-16 09:29N 36°04' E 014°31'713.9
2017-Nov-16 09:00N 36°00' E 014°38'713.2
2017-Nov-16 08:30N 35°54' E 014°41'510.4
2017-Nov-16 08:00N 35°49' E 014°40'3 6.7
2017-Nov-16 07:30N 35°50' E 014°36'0 0.1
2017-Nov-16 06:42N 35°50' E 014°36'0 0.3
2017-Nov-16 06:24N 35°50' E 014°36'0 0.0
2017-Nov-16 06:00N 35°50' E 014°36'0 0.1
2017-Nov-16 05:27N 35°50' E 014°36'0 0.0
2017-Nov-16 03:57N 35°50' E 014°36'0 0.0
2017-Nov-15 07:09N 35°50' E 014°36'0 0.0
2017-Nov-15 06:57N 35°50' E 014°36'0 0.0
2017-Nov-15 06:30N 35°50' E 014°36'0 0.0
2017-Nov-15 06:00N 35°50' E 014°36'0 0.1
2017-Nov-15 05:30N 35°50' E 014°36'0 0.9
2017-Nov-15 05:00N 35°50' E 014°37'2 3.8
2017-Nov-15 04:30N 35°49' E 014°39'3 5.2
2017-Nov-15 04:00N 35°51' E 014°42'4 8.4
2017-Nov-15 03:30N 35°55' E 014°42'611.4
2017-Nov-15 03:00N 36°00' E 014°46'24912.4
2017-Nov-14 07:00N 38°54' E 018°30'29012.1 180 / 201003.0 5.4 17.015.3
2017-Nov-13 07:00N 43°00' E 015°06'9012.8 140 / 23995.0 5.4 17.013.5
2017-Nov-12 23:57N 44°01' E 013°34'613.4
2017-Nov-12 23:30N 44°04' E 013°27'1812.6
2017-Nov-12 22:03N 44°18' E 013°10'113.0
2017-Nov-12 21:58N 44°19' E 013°10'612.9
2017-Nov-12 21:30N 44°25' E 013°07'612.9
2017-Nov-12 21:00N 44°31' E 013°04'713.0
2017-Nov-12 20:30N 44°37' E 013°02'612.9
2017-Nov-12 20:00N 44°43' E 012°59'713.1
2017-Nov-12 19:30N 44°49' E 012°55'713.5
2017-Nov-12 19:00N 44°55' E 012°51'713.8
2017-Nov-12 18:30N 45°01' E 012°46'713.5
2017-Nov-12 18:00N 45°07' E 012°41'713.6
2017-Nov-12 17:30N 45°11' E 012°33'612.1
2017-Nov-12 17:00N 45°16' E 012°28'612.4
2017-Nov-12 16:30N 45°20' E 012°22'5 9.2
2017-Nov-12 16:00N 45°21' E 012°15'4 8.4
2017-Nov-12 15:30N 45°26' E 012°16'1 2.8
2017-Nov-12 15:00N 45°26' E 012°14'0 0.5
2017-Nov-12 14:30N 45°26' E 012°14'0 0.0
2017-Nov-12 14:00N 45°26' E 012°14'0 0.0
2017-Nov-12 13:30N 45°26' E 012°14'0 0.0
2017-Nov-12 13:00N 45°26' E 012°14'0 0.0
2017-Nov-12 12:30N 45°26' E 012°14'0 0.0
2017-Nov-12 12:00N 45°26' E 012°14'0 0.0
2017-Nov-12 11:30N 45°26' E 012°14'0 0.0
2017-Nov-12 11:00N 45°26' E 012°14'0 0.0
2017-Nov-12 10:30N 45°26' E 012°14'0 0.0
2017-Nov-12 10:00N 45°26' E 012°14'0 0.0
2017-Nov-12 09:30N 45°26' E 012°14'0 0.0
2017-Nov-12 09:00N 45°26' E 012°14'0 0.0
2017-Nov-12 08:30N 45°26' E 012°14'0 0.0
2017-Nov-12 08:00N 45°26' E 012°14'0 0.0
2017-Nov-12 07:30N 45°26' E 012°14'0 0.0
2017-Nov-12 07:00N 45°26' E 012°14'0 0.0
2017-Nov-12 06:30N 45°26' E 012°14'0 0.0
2017-Nov-12 05:57N 45°26' E 012°14'0 0.0
2017-Nov-12 05:30N 45°26' E 012°14'0 0.0
2017-Nov-12 05:00N 45°26' E 012°14'0 0.0
2017-Nov-12 04:30N 45°26' E 012°14'0 0.0
2017-Nov-12 04:00N 45°26' E 012°14'0 0.0
2017-Nov-12 03:30N 45°26' E 012°14'0 0.0
2017-Nov-12 03:00N 45°26' E 012°14'0 0.0
2017-Nov-12 02:30N 45°26' E 012°14'0 0.0
2017-Nov-12 02:00N 45°26' E 012°14'0 0.0
2017-Nov-12 01:30N 45°26' E 012°14'0 0.0
2017-Nov-12 01:00N 45°26' E 012°14'0 0.0
2017-Nov-12 00:30N 45°26' E 012°14'0 0.0
2017-Nov-12 00:00N 45°26' E 012°14'0 0.0
2017-Nov-11 23:30N 45°26' E 012°14'0 0.0
2017-Nov-11 22:57N 45°26' E 012°14'0 0.0
2017-Nov-11 22:30N 45°26' E 012°14'0 0.0
2017-Nov-11 22:00N 45°26' E 012°14'0 0.0
2017-Nov-11 21:30N 45°26' E 012°14'0 0.0
2017-Nov-11 21:00N 45°26' E 012°14'0 0.0
2017-Nov-11 20:30N 45°26' E 012°14'0 0.0
2017-Nov-11 20:00N 45°26' E 012°14'0 0.0
2017-Nov-11 19:27N 45°26' E 012°14'0 0.0
2017-Nov-11 18:57N 45°26' E 012°14'0 0.0
2017-Nov-11 18:30N 45°26' E 012°14'0 0.0
2017-Nov-11 18:00N 45°26' E 012°14'0 0.0
2017-Nov-11 17:30N 45°26' E 012°14'0 0.0
2017-Nov-11 16:57N 45°26' E 012°14'0 0.0
2017-Nov-11 16:30N 45°26' E 012°14'0 0.0
2017-Nov-11 16:00N 45°26' E 012°14'0 0.0
2017-Nov-11 15:30N 45°26' E 012°14'0 0.0
2017-Nov-11 15:00N 45°26' E 012°14'0 0.0
2017-Nov-11 14:30N 45°26' E 012°14'0 0.0
2017-Nov-11 14:00N 45°26' E 012°14'0 0.0
2017-Nov-11 13:30N 45°26' E 012°14'0 0.0
2017-Nov-11 13:00N 45°26' E 012°14'0 0.0
2017-Nov-11 12:30N 45°26' E 012°14'0 0.0
2017-Nov-11 12:00N 45°26' E 012°14'0 0.0
2017-Nov-11 11:30N 45°26' E 012°14'0 0.0
2017-Nov-11 11:00N 45°26' E 012°14'0 0.0
2017-Nov-11 10:30N 45°26' E 012°14'0 0.0
2017-Nov-11 10:00N 45°26' E 012°14'0 0.0
2017-Nov-11 09:30N 45°26' E 012°14'0 0.0
2017-Nov-11 09:00N 45°26' E 012°14'0 0.0
2017-Nov-11 08:27N 45°26' E 012°14'0 0.0
2017-Nov-11 07:57N 45°26' E 012°14'0 0.0
2017-Nov-11 07:30N 45°26' E 012°14'0 0.0
2017-Nov-11 07:00N 45°26' E 012°14'0 0.0
2017-Nov-11 06:27N 45°26' E 012°14'0 0.0
2017-Nov-11 06:00N 45°26' E 012°14'0 0.0
2017-Nov-11 05:27N 45°26' E 012°14'0 0.0
2017-Nov-11 05:00N 45°26' E 012°14'0 0.0
2017-Nov-11 04:30N 45°26' E 012°14'0 0.0
2017-Nov-11 04:00N 45°26' E 012°14'0 0.0
2017-Nov-11 03:30N 45°26' E 012°14'0 0.0
2017-Nov-11 03:00N 45°26' E 012°14'0 0.0
2017-Nov-11 02:27N 45°26' E 012°14'0 0.0
2017-Nov-11 02:00N 45°26' E 012°14'0 0.0
2017-Nov-11 01:30N 45°26' E 012°14'0 0.0
2017-Nov-11 00:57N 45°26' E 012°14'0 0.0
2017-Nov-11 00:27N 45°26' E 012°14'0 0.0
2017-Nov-11 00:00N 45°26' E 012°14'0 0.0
2017-Nov-10 23:30N 45°26' E 012°14'0 0.0
2017-Nov-10 22:57N 45°26' E 012°14'0 0.0
2017-Nov-10 22:27N 45°26' E 012°14'0 0.0
2017-Nov-10 21:57N 45°26' E 012°14'0 0.0
2017-Nov-10 21:30N 45°26' E 012°14'0 0.0
2017-Nov-10 21:00N 45°26' E 012°14'0 0.0
2017-Nov-10 20:30N 45°26' E 012°14'0 0.0
2017-Nov-10 20:00N 45°26' E 012°14'0 0.0
2017-Nov-10 19:27N 45°26' E 012°14'0 0.0
2017-Nov-10 19:00N 45°26' E 012°14'0 0.0
2017-Nov-10 18:30N 45°26' E 012°14'0 0.0
2017-Nov-10 18:00N 45°26' E 012°14'0 0.0
2017-Nov-10 17:30N 45°26' E 012°14'0 0.0
2017-Nov-10 17:00N 45°26' E 012°14'0 0.0
2017-Nov-10 16:30N 45°26' E 012°14'0 0.0
2017-Nov-10 16:00N 45°26' E 012°14'0 0.0
2017-Nov-10 15:30N 45°26' E 012°14'0 0.0
2017-Nov-10 15:00N 45°26' E 012°14'0 0.0
2017-Nov-10 14:30N 45°26' E 012°14'0 0.0
2017-Nov-10 11:02N 45°26' E 012°14'0 3.0
2017-Nov-10 11:00N 45°26' E 012°14'1 3.0
2017-Nov-10 10:30N 45°25' E 012°16'3 6.2
2017-Nov-10 10:00N 45°22' E 012°15'4 7.9
2017-Nov-10 09:31N 45°20' E 012°20'2 4.6
2017-Nov-10 09:01N 45°19' E 012°23'3 6.7
2017-Nov-10 08:30N 45°19' E 012°28'0 0.3
2017-Nov-10 07:58N 45°19' E 012°28'0 0.0
2017-Nov-10 07:28N 45°19' E 012°28'  
Track history (hours):
 
Tides and Currents Weather Stations Pressure Air Temp Water Temp Dewpoint Dewpoint Depression Visibility Wind Speed Wind Dir Waves Ship Positions

Sunlight Express

Last reported at 2017-Nov-20 07:00 UTC. Time now 2017-Nov-21 19:23 UTC.
Position N 37°00' E 000°54'.

Length 182 m; draft 7.8 m.

Type: Ship. MMSI: 351001000.

Wind from 230 at 14 knots

Barometer 1021.0 mb
Air temperature 17.0 ° C
Visibility: greater than 5.4 NM
Dewpoint 13.5 ° C

Date/timePositionNaut miles runAvg speedWind from/ knotsBaromVisibWave heightAir tempDewpointWater temp
2017-Nov-20 07:00N 37°00' E 000°54'   230 / 141021.0 5.4 17.013.5
2017-Nov-17 07:00N 37°48' E 008°48'24913.6 320 / 201014.0 5.4 16.012.4
2017-Nov-16 12:40N 36°25' E 013°43'213.7
2017-Nov-16 12:30N 36°24' E 013°46'713.7
2017-Nov-16 12:00N 36°21' E 013°53'913.9
2017-Nov-16 11:21N 36°17' E 014°03'514.1
2017-Nov-16 11:00N 36°15' E 014°09'714.0
2017-Nov-16 10:30N 36°12' E 014°16'714.0
2017-Nov-16 10:00N 36°08' E 014°24'713.8
2017-Nov-16 09:29N 36°04' E 014°31'713.9
2017-Nov-16 09:00N 36°00' E 014°38'713.2
2017-Nov-16 08:30N 35°54' E 014°41'510.4
2017-Nov-16 08:00N 35°49' E 014°40'3 6.7
2017-Nov-16 07:30N 35°50' E 014°36'0 0.1
2017-Nov-16 06:42N 35°50' E 014°36'0 0.3
2017-Nov-16 06:24N 35°50' E 014°36'0 0.0
2017-Nov-16 06:00N 35°50' E 014°36'0 0.1
2017-Nov-16 05:27N 35°50' E 014°36'0 0.0
2017-Nov-16 03:57N 35°50' E 014°36'0 0.0
2017-Nov-15 07:09N 35°50' E 014°36'0 0.0
2017-Nov-15 06:57N 35°50' E 014°36'0 0.0
2017-Nov-15 06:30N 35°50' E 014°36'0 0.0
2017-Nov-15 06:00N 35°50' E 014°36'0 0.1
2017-Nov-15 05:30N 35°50' E 014°36'0 0.9
2017-Nov-15 05:00N 35°50' E 014°37'2 3.8
2017-Nov-15 04:30N 35°49' E 014°39'3 5.2
2017-Nov-15 04:00N 35°51' E 014°42'4 8.4
2017-Nov-15 03:30N 35°55' E 014°42'611.4
2017-Nov-15 03:00N 36°00' E 014°46'24912.4
2017-Nov-14 07:00N 38°54' E 018°30'29012.1 180 / 201003.0 5.4 17.015.3
2017-Nov-13 07:00N 43°00' E 015°06'9012.8 140 / 23995.0 5.4 17.013.5
2017-Nov-12 23:57N 44°01' E 013°34'613.4
2017-Nov-12 23:30N 44°04' E 013°27'1812.6
2017-Nov-12 22:03N 44°18' E 013°10'113.0
2017-Nov-12 21:58N 44°19' E 013°10'612.9
2017-Nov-12 21:30N 44°25' E 013°07'612.9
2017-Nov-12 21:00N 44°31' E 013°04'713.0
2017-Nov-12 20:30N 44°37' E 013°02'612.9
2017-Nov-12 20:00N 44°43' E 012°59'713.1
2017-Nov-12 19:30N 44°49' E 012°55'713.5
2017-Nov-12 19:00N 44°55' E 012°51'713.8
2017-Nov-12 18:30N 45°01' E 012°46'713.5
2017-Nov-12 18:00N 45°07' E 012°41'713.6
2017-Nov-12 17:30N 45°11' E 012°33'612.1
2017-Nov-12 17:00N 45°16' E 012°28'612.4
2017-Nov-12 16:30N 45°20' E 012°22'5 9.2
2017-Nov-12 16:00N 45°21' E 012°15'4 8.4
2017-Nov-12 15:30N 45°26' E 012°16'1 2.8
2017-Nov-12 15:00N 45°26' E 012°14'0 0.5
2017-Nov-12 14:30N 45°26' E 012°14'0 0.0
2017-Nov-12 14:00N 45°26' E 012°14'0 0.0
2017-Nov-12 13:30N 45°26' E 012°14'0 0.0
2017-Nov-12 13:00N 45°26' E 012°14'0 0.0
2017-Nov-12 12:30N 45°26' E 012°14'0 0.0
2017-Nov-12 12:00N 45°26' E 012°14'0 0.0
2017-Nov-12 11:30N 45°26' E 012°14'0 0.0
2017-Nov-12 11:00N 45°26' E 012°14'0 0.0
2017-Nov-12 10:30N 45°26' E 012°14'0 0.0
2017-Nov-12 10:00N 45°26' E 012°14'0 0.0
2017-Nov-12 09:30N 45°26' E 012°14'0 0.0
2017-Nov-12 09:00N 45°26' E 012°14'0 0.0
2017-Nov-12 08:30N 45°26' E 012°14'0 0.0
2017-Nov-12 08:00N 45°26' E 012°14'0 0.0
2017-Nov-12 07:30N 45°26' E 012°14'0 0.0
2017-Nov-12 07:00N 45°26' E 012°14'0 0.0
2017-Nov-12 06:30N 45°26' E 012°14'0 0.0
2017-Nov-12 05:57N 45°26' E 012°14'0 0.0
2017-Nov-12 05:30N 45°26' E 012°14'0 0.0
2017-Nov-12 05:00N 45°26' E 012°14'0 0.0
2017-Nov-12 04:30N 45°26' E 012°14'0 0.0
2017-Nov-12 04:00N 45°26' E 012°14'0 0.0
2017-Nov-12 03:30N 45°26' E 012°14'0 0.0
2017-Nov-12 03:00N 45°26' E 012°14'0 0.0
2017-Nov-12 02:30N 45°26' E 012°14'0 0.0
2017-Nov-12 02:00N 45°26' E 012°14'0 0.0
2017-Nov-12 01:30N 45°26' E 012°14'0 0.0
2017-Nov-12 01:00N 45°26' E 012°14'0 0.0
2017-Nov-12 00:30N 45°26' E 012°14'0 0.0
2017-Nov-12 00:00N 45°26' E 012°14'0 0.0
2017-Nov-11 23:30N 45°26' E 012°14'0 0.0
2017-Nov-11 22:57N 45°26' E 012°14'0 0.0
2017-Nov-11 22:30N 45°26' E 012°14'0 0.0
2017-Nov-11 22:00N 45°26' E 012°14'0 0.0
2017-Nov-11 21:30N 45°26' E 012°14'0 0.0
2017-Nov-11 21:00N 45°26' E 012°14'0 0.0
2017-Nov-11 20:30N 45°26' E 012°14'0 0.0
2017-Nov-11 20:00N 45°26' E 012°14'0 0.0
2017-Nov-11 19:27N 45°26' E 012°14'0 0.0
2017-Nov-11 18:57N 45°26' E 012°14'0 0.0
2017-Nov-11 18:30N 45°26' E 012°14'0 0.0
2017-Nov-11 18:00N 45°26' E 012°14'0 0.0
2017-Nov-11 17:30N 45°26' E 012°14'0 0.0
2017-Nov-11 16:57N 45°26' E 012°14'0 0.0
2017-Nov-11 16:30N 45°26' E 012°14'0 0.0
2017-Nov-11 16:00N 45°26' E 012°14'0 0.0
2017-Nov-11 15:30N 45°26' E 012°14'0 0.0
2017-Nov-11 15:00N 45°26' E 012°14'0 0.0
2017-Nov-11 14:30N 45°26' E 012°14'0 0.0
2017-Nov-11 14:00N 45°26' E 012°14'0 0.0
2017-Nov-11 13:30N 45°26' E 012°14'0 0.0
2017-Nov-11 13:00N 45°26' E 012°14'0 0.0
2017-Nov-11 12:30N 45°26' E 012°14'0 0.0
2017-Nov-11 12:00N 45°26' E 012°14'0 0.0
2017-Nov-11 11:30N 45°26' E 012°14'0 0.0
2017-Nov-11 11:00N 45°26' E 012°14'0 0.0
2017-Nov-11 10:30N 45°26' E 012°14'0 0.0
2017-Nov-11 10:00N 45°26' E 012°14'0 0.0
2017-Nov-11 09:30N 45°26' E 012°14'0 0.0
2017-Nov-11 09:00N 45°26' E 012°14'0 0.0
2017-Nov-11 08:27N 45°26' E 012°14'0 0.0
2017-Nov-11 07:57N 45°26' E 012°14'0 0.0
2017-Nov-11 07:30N 45°26' E 012°14'0 0.0
2017-Nov-11 07:00N 45°26' E 012°14'0 0.0
2017-Nov-11 06:27N 45°26' E 012°14'0 0.0
2017-Nov-11 06:00N 45°26' E 012°14'0 0.0
2017-Nov-11 05:27N 45°26' E 012°14'0 0.0
2017-Nov-11 05:00N 45°26' E 012°14'0 0.0
2017-Nov-11 04:30N 45°26' E 012°14'0 0.0
2017-Nov-11 04:00N 45°26' E 012°14'0 0.0
2017-Nov-11 03:30N 45°26' E 012°14'0 0.0
2017-Nov-11 03:00N 45°26' E 012°14'0 0.0
2017-Nov-11 02:27N 45°26' E 012°14'0 0.0
2017-Nov-11 02:00N 45°26' E 012°14'0 0.0
2017-Nov-11 01:30N 45°26' E 012°14'0 0.0
2017-Nov-11 00:57N 45°26' E 012°14'0 0.0
2017-Nov-11 00:27N 45°26' E 012°14'0 0.0
2017-Nov-11 00:00N 45°26' E 012°14'0 0.0
2017-Nov-10 23:30N 45°26' E 012°14'0 0.0
2017-Nov-10 22:57N 45°26' E 012°14'0 0.0
2017-Nov-10 22:27N 45°26' E 012°14'0 0.0
2017-Nov-10 21:57N 45°26' E 012°14'0 0.0
2017-Nov-10 21:30N 45°26' E 012°14'0 0.0
2017-Nov-10 21:00N 45°26' E 012°14'0 0.0
2017-Nov-10 20:30N 45°26' E 012°14'0 0.0
2017-Nov-10 20:00N 45°26' E 012°14'0 0.0
2017-Nov-10 19:27N 45°26' E 012°14'0 0.0
2017-Nov-10 19:00N 45°26' E 012°14'0 0.0
2017-Nov-10 18:30N 45°26' E 012°14'0 0.0
2017-Nov-10 18:00N 45°26' E 012°14'0 0.0
2017-Nov-10 17:30N 45°26' E 012°14'0 0.0
2017-Nov-10 17:00N 45°26' E 012°14'0 0.0
2017-Nov-10 16:30N 45°26' E 012°14'0 0.0
2017-Nov-10 16:00N 45°26' E 012°14'0 0.0
2017-Nov-10 15:30N 45°26' E 012°14'0 0.0
2017-Nov-10 15:00N 45°26' E 012°14'0 0.0
2017-Nov-10 14:30N 45°26' E 012°14'0 0.0
2017-Nov-10 11:02N 45°26' E 012°14'0 3.0
2017-Nov-10 11:00N 45°26' E 012°14'1 3.0
2017-Nov-10 10:30N 45°25' E 012°16'3 6.2
2017-Nov-10 10:00N 45°22' E 012°15'4 7.9
2017-Nov-10 09:31N 45°20' E 012°20'2 4.6
2017-Nov-10 09:01N 45°19' E 012°23'3 6.7
2017-Nov-10 08:30N 45°19' E 012°28'0 0.3
2017-Nov-10 07:58N 45°19' E 012°28'0 0.0
2017-Nov-10 07:28N 45°19' E 012°28'  

Dump ship's entire track history